Time;durP1;ratioP1;P1;durP2;ratioP2;P2;SDS_P1;SDS_P2;PMS_P1;PMS_P2;Temp;Humidity;BMP_temperature;BMP_pressure;BME280_temperature;BME280_humidity;BME280_pressure;Samples;Min_cycle;Max_cycle;Signal;HPM_P1;HPM_P2
2024/02/04 00:01:25;;;;;;;;;;;;;;;;;;4217100;28;20023;-60
2024/02/04 00:03:27;;;;;;;;;;;;;;;;;;4213284;28;19919;-59
2024/02/04 00:05:29;;;;;;;;;;;;;;;;;;4213143;28;19920;-60
2024/02/04 00:07:30;;;;;;;;;;;;;;;;;;4216739;28;19946;-59
2024/02/04 00:09:32;;;;;;;;;;;;;;;;;;4215646;28;19927;-59
2024/02/04 00:11:36;;;;;;;;;;;;;;;;;;4216818;28;19919;-60
2024/02/04 00:13:38;;;;;;;;;;;;;;;;;;4215476;28;19920;-59
2024/02/04 00:15:39;;;;;;;;;;;;;;;;;;4216411;28;19923;-59
2024/02/04 00:17:41;;;;;;;;;;;;;;;;;;4216244;28;19930;-59
2024/02/04 00:19:42;;;;;;;;;;;;;;;;;;4215216;28;19920;-59
2024/02/04 00:21:46;;;;;;;;;;;;;;;;;;4199544;28;20410;-60
2024/02/04 00:23:47;;;;;;;;;;;;;;;;;;4198702;28;20008;-59
2024/02/04 00:25:49;;;;;;;;;;;;;;;;;;4204097;28;19950;-59
2024/02/04 00:27:50;;;;;;;;;;;;;;;;;;4198040;28;20277;-59
2024/02/04 00:29:52;;;;;;;;;;;;;;;;;;4215944;28;20518;-59
2024/02/04 00:31:53;;;;;;;;;;;;;;;;;;4216762;28;19924;-59
2024/02/04 00:33:55;;;;;;;;;;;;;;;;;;4216695;28;20097;-59
2024/02/04 00:35:56;;;;;;;;;;;;;;;;;;4216674;28;19951;-60
2024/02/04 00:37:58;;;;;;;;;;;;;;;;;;4216311;28;19924;-59
2024/02/04 00:39:59;;;;;;;;;;;;;;;;;;4208272;28;19924;-60
2024/02/04 00:42:01;;;;;;;;;;;;;;;;;;4207651;28;19920;-59
2024/02/04 00:44:03;;;;;;;;;;;;;;;;;;4210562;28;19924;-59
2024/02/04 00:46:04;;;;;;;;;;;;;;;;;;4216330;28;19924;-59
2024/02/04 00:48:06;;;;;;;;;;;;;;;;;;4215057;28;19926;-59
2024/02/04 00:50:07;;;;;;;;;;;;;;;;;;4214623;28;20018;-59
2024/02/04 00:52:09;;;;;;;;;;;;;;;;;;4211127;28;19939;-59
2024/02/04 00:54:11;;;;;;;;;;;;;;;;;;4205475;28;19928;-59
2024/02/04 00:56:12;;;;;;;;;;;;;;;;;;4216170;28;19927;-59
2024/02/04 00:58:14;;;;;;;;;;;;;;;;;;4215910;28;20388;-59
2024/02/04 01:00:15;;;;;;;;;;;;;;;;;;4216322;28;19924;-61
2024/02/04 01:02:17;;;;;;;;;;;;;;;;;;4215932;28;19971;-61
2024/02/04 01:04:18;;;;;;;;;;;;;;;;;;4216013;28;19919;-60
2024/02/04 01:06:20;;;;;;;;;;;;;;;;;;4216141;28;20326;-61
2024/02/04 01:08:22;;;;;;;;;;;;;;;;;;4215870;28;20371;-60
2024/02/04 01:10:23;;;;;;;;;;;;;;;;;;4215850;28;19924;-60
2024/02/04 01:12:25;;;;;;;;;;;;;;;;;;4215822;28;19963;-60
2024/02/04 01:14:26;;;;;;;;;;;;;;;;;;4215667;28;20421;-60
2024/02/04 01:16:30;;;;;;;;;;;;;;;;;;4215586;28;19930;-60
2024/02/04 01:18:33;;;;;;;;;;;;;;;;;;4215268;28;19986;-60
2024/02/04 01:20:34;;;;;;;;;;;;;;;;;;4215722;28;20006;-60
2024/02/04 01:22:43;;;;;;;;;;;;;;;;;;4215754;28;19920;-60
2024/02/04 01:24:47;;;;;;;;;;;;;;;;;;4215692;28;19928;-60
2024/02/04 01:26:48;;;;;;;;;;;;;;;;;;4215769;28;20336;-60
2024/02/04 01:28:50;;;;;;;;;;;;;;;;;;4214676;28;19924;-60
2024/02/04 01:30:54;;;;;;;;;;;;;;;;;;4215508;28;20403;-60
2024/02/04 01:32:56;;;;;;;;;;;;;;;;;;4214722;28;19920;-60
2024/02/04 01:34:57;;;;;;;;;;;;;;;;;;4213859;28;19920;-61
2024/02/04 01:36:59;;;;;;;;;;;;;;;;;;4215197;28;19924;-61
2024/02/04 01:39:00;;;;;;;;;;;;;;;;;;4214226;28;19928;-60
2024/02/04 01:41:02;;;;;;;;;;;;;;;;;;4214702;28;20345;-60
2024/02/04 01:43:03;;;;;;;;;;;;;;;;;;4214763;28;20369;-60
2024/02/04 01:45:07;;;;;;;;;;;;;;;;;;4214931;28;19927;-60
2024/02/04 01:47:09;;;;;;;;;;;;;;;;;;4214974;28;19919;-60
2024/02/04 01:49:10;;;;;;;;;;;;;;;;;;4212743;28;19965;-61
2024/02/04 01:51:12;;;;;;;;;;;;;;;;;;4198466;28;19920;-60
2024/02/04 01:53:14;;;;;;;;;;;;;;;;;;4211525;28;19931;-61
2024/02/04 01:55:15;;;;;;;;;;;;;;;;;;4200598;28;19925;-60
2024/02/04 01:57:17;;;;;;;;;;;;;;;;;;4201329;28;19920;-61
2024/02/04 01:59:18;;;;;;;;;;;;;;;;;;4213181;28;19924;-60
2024/02/04 02:01:20;;;;;;;;;;;;;;;;;;4214217;28;20378;-59
2024/02/04 02:03:23;;;;;;;;;;;;;;;;;;4212537;22;19924;-58
2024/02/04 02:05:24;;;;;;;;;;;;;;;;;;4164221;28;20295;-61
2024/02/04 02:07:27;;;;;;;;;;;;;;;;;;4148665;28;19925;-61
2024/02/04 02:09:29;;;;;;;;;;;;;;;;;;4153005;28;20380;-61
2024/02/04 02:11:31;;;;;;;;;;;;;;;;;;4148714;28;19979;-61
2024/02/04 02:13:32;;;;;;;;;;;;;;;;;;4160519;28;19921;-60
2024/02/04 02:15:36;;;;;;;;;;;;;;;;;;4164931;28;19947;-61
2024/02/04 02:17:37;;;;;;;;;;;;;;;;;;4164943;28;19921;-61
2024/02/04 02:19:39;;;;;;;;;;;;;;;;;;4164809;28;19925;-61
2024/02/04 02:21:40;;;;;;;;;;;;;;;;;;4165041;28;19948;-61
2024/02/04 02:23:42;;;;;;;;;;;;;;;;;;4163879;28;20427;-61
2024/02/04 02:25:44;;;;;;;;;;;;;;;;;;4164994;28;19921;-61
2024/02/04 02:27:45;;;;;;;;;;;;;;;;;;4164721;28;19975;-61
2024/02/04 02:29:47;;;;;;;;;;;;;;;;;;4164812;28;19929;-61
2024/02/04 02:31:48;;;;;;;;;;;;;;;;;;4163447;28;20377;-61
2024/02/04 02:33:50;;;;;;;;;;;;;;;;;;4164745;28;19948;-60
2024/02/04 02:35:51;;;;;;;;;;;;;;;;;;4179956;28;19956;-60
2024/02/04 02:37:53;;;;;;;;;;;;;;;;;;4164583;28;20020;-62
2024/02/04 02:39:54;;;;;;;;;;;;;;;;;;4164609;28;19975;-61
2024/02/04 02:41:56;;;;;;;;;;;;;;;;;;4164512;28;19925;-60
2024/02/04 02:43:57;;;;;;;;;;;;;;;;;;4148258;28;20308;-61
2024/02/04 02:45:58;;;;;;;;;;;;;;;;;;4159914;28;20429;-61
2024/02/04 02:48:00;;;;;;;;;;;;;;;;;;4181064;28;19924;-61
2024/02/04 02:50:01;;;;;;;;;;;;;;;;;;4180448;28;19920;-61
2024/02/04 02:52:03;;;;;;;;;;;;;;;;;;4177460;28;19969;-61
2024/02/04 02:54:05;;;;;;;;;;;;;;;;;;4164450;28;19921;-60
2024/02/04 02:56:07;;;;;;;;;;;;;;;;;;4164435;28;19928;-61
2024/02/04 02:58:08;;;;;;;;;;;;;;;;;;4164191;28;19921;-62
2024/02/04 03:00:10;;;;;;;;;;;;;;;;;;4160051;28;19976;-61
2024/02/04 03:02:13;;;;;;;;;;;;;;;;;;4155517;28;19921;-61
2024/02/04 03:04:15;;;;;;;;;;;;;;;;;;4164231;28;20365;-61
2024/02/04 03:06:16;;;;;;;;;;;;;;;;;;4164512;28;19925;-61
2024/02/04 03:08:18;;;;;;;;;;;;;;;;;;4164399;28;20027;-61
2024/02/04 03:10:20;;;;;;;;;;;;;;;;;;4131899;28;20282;-61
2024/02/04 03:12:21;;;;;;;;;;;;;;;;;;4131727;28;19922;-61
2024/02/04 03:14:23;;;;;;;;;;;;;;;;;;4132107;28;19929;-61
2024/02/04 03:16:24;;;;;;;;;;;;;;;;;;4131709;28;19922;-61
2024/02/04 03:18:25;;;;;;;;;;;;;;;;;;4131797;28;19922;-61
2024/02/04 03:20:27;;;;;;;;;;;;;;;;;;4131778;28;19953;-61
2024/02/04 03:22:28;;;;;;;;;;;;;;;;;;4131826;28;20040;-61
2024/02/04 03:24:30;;;;;;;;;;;;;;;;;;4131891;28;20282;-60
2024/02/04 03:26:32;;;;;;;;;;;;;;;;;;4131710;28;20008;-61
2024/02/04 03:28:33;;;;;;;;;;;;;;;;;;4131684;28;19964;-61
2024/02/04 03:30:34;;;;;;;;;;;;;;;;;;4135953;28;19976;-61
2024/02/04 03:32:36;;;;;;;;;;;;;;;;;;4147961;28;19999;-61
2024/02/04 03:34:39;;;;;;;;;;;;;;;;;;4147615;28;19925;-61
2024/02/04 03:36:41;;;;;;;;;;;;;;;;;;4147202;28;19928;-61
2024/02/04 03:38:42;;;;;;;;;;;;;;;;;;4147670;28;19957;-61
2024/02/04 03:40:44;;;;;;;;;;;;;;;;;;4147827;28;20001;-61
2024/02/04 03:42:49;;;;;;;;;;;;;;;;;;4147933;28;19979;-60
2024/02/04 03:44:50;;;;;;;;;;;;;;;;;;4147996;28;19928;-61
2024/02/04 03:46:52;;;;;;;;;;;;;;;;;;4147781;28;19944;-58
2024/02/04 03:48:53;;;;;;;;;;;;;;;;;;4147668;28;19929;-60
2024/02/04 03:50:55;;;;;;;;;;;;;;;;;;4147697;28;19926;-60
2024/02/04 03:52:56;;;;;;;;;;;;;;;;;;4147593;28;19921;-60
2024/02/04 03:54:59;;;;;;;;;;;;;;;;;;4147848;28;19980;-61
2024/02/04 03:57:01;;;;;;;;;;;;;;;;;;4147472;28;19925;-60
2024/02/04 03:59:03;;;;;;;;;;;;;;;;;;4146889;28;19925;-61
2024/02/04 04:01:04;;;;;;;;;;;;;;;;;;4146329;28;19943;-60
2024/02/04 04:03:06;;;;;;;;;;;;;;;;;;4149844;28;19934;-61
2024/02/04 04:05:07;;;;;;;;;;;;;;;;;;4150592;28;19926;-61
2024/02/04 04:07:09;;;;;;;;;;;;;;;;;;4150860;28;19925;-60
2024/02/04 04:09:10;;;;;;;;;;;;;;;;;;4150778;28;19979;-59
2024/02/04 04:11:12;;;;;;;;;;;;;;;;;;4150638;28;19921;-61
2024/02/04 04:13:13;;;;;;;;;;;;;;;;;;4150438;28;19925;-60
2024/02/04 04:15:15;;;;;;;;;;;;;;;;;;4150695;28;20025;-61
2024/02/04 04:17:16;;;;;;;;;;;;;;;;;;4150740;28;20372;-61
2024/02/04 04:19:18;;;;;;;;;;;;;;;;;;4150500;28;20023;-61
2024/02/04 04:21:19;;;;;;;;;;;;;;;;;;4150567;28;20008;-57
2024/02/04 04:23:21;;;;;;;;;;;;;;;;;;4150394;28;19922;-58
2024/02/04 04:25:23;;;;;;;;;;;;;;;;;;4150393;28;20313;-58
2024/02/04 04:27:24;;;;;;;;;;;;;;;;;;4150274;28;20291;-57
2024/02/04 04:29:26;;;;;;;;;;;;;;;;;;4150322;28;19921;-57
2024/02/04 04:31:28;;;;;;;;;;;;;;;;;;4150198;28;20381;-57
2024/02/04 04:33:30;;;;;;;;;;;;;;;;;;4150246;28;19956;-57
2024/02/04 04:35:31;;;;;;;;;;;;;;;;;;4150076;28;20292;-58
2024/02/04 04:37:33;;;;;;;;;;;;;;;;;;4150166;28;19967;-58
2024/02/04 04:39:34;;;;;;;;;;;;;;;;;;4146334;28;19929;-57
2024/02/04 04:41:36;;;;;;;;;;;;;;;;;;4142681;28;19932;-57
2024/02/04 04:43:39;;;;;;;;;;;;;;;;;;4134047;28;19980;-57
2024/02/04 04:45:41;;;;;;;;;;;;;;;;;;4133822;28;19928;-58
2024/02/04 04:47:42;;;;;;;;;;;;;;;;;;4133713;28;19937;-57
2024/02/04 04:49:44;;;;;;;;;;;;;;;;;;4133635;28;19922;-57
2024/02/04 04:51:48;;;;;;;;;;;;;;;;;;4140087;28;19948;-57
2024/02/04 04:53:50;;;;;;;;;;;;;;;;;;4149972;28;19928;-58
2024/02/04 04:55:51;;;;;;;;;;;;;;;;;;4149878;28;19932;-57
2024/02/04 04:57:53;;;;;;;;;;;;;;;;;;4149623;28;19932;-57
2024/02/04 04:59:54;;;;;;;;;;;;;;;;;;4149871;28;19925;-57
2024/02/04 05:01:56;;;;;;;;;;;;;;;;;;4149841;28;20382;-57
2024/02/04 05:03:57;;;;;;;;;;;;;;;;;;4149392;28;20400;-57
2024/02/04 05:06:01;;;;;;;;;;;;;;;;;;4149801;28;19929;-57
2024/02/04 05:08:02;;;;;;;;;;;;;;;;;;4149666;28;19921;-58
2024/02/04 05:10:03;;;;;;;;;;;;;;;;;;4149620;28;20292;-57
2024/02/04 05:12:05;;;;;;;;;;;;;;;;;;4149693;28;20020;-57
2024/02/04 05:14:07;;;;;;;;;;;;;;;;;;4148665;28;19961;-58
2024/02/04 05:16:08;;;;;;;;;;;;;;;;;;4149612;28;19929;-57
2024/02/04 05:18:10;;;;;;;;;;;;;;;;;;4149628;28;19961;-57
2024/02/04 05:20:11;;;;;;;;;;;;;;;;;;4149476;28;19928;-57
2024/02/04 05:22:13;;;;;;;;;;;;;;;;;;4149541;28;19991;-58
2024/02/04 05:24:14;;;;;;;;;;;;;;;;;;4149445;28;19929;-58
2024/02/04 05:26:16;;;;;;;;;;;;;;;;;;4149358;28;19925;-58
2024/02/04 05:28:17;;;;;;;;;;;;;;;;;;4149345;28;19926;-58
2024/02/04 05:30:19;;;;;;;;;;;;;;;;;;4149286;28;19926;-58
2024/02/04 05:32:20;;;;;;;;;;;;;;;;;;4149595;28;19976;-57
2024/02/04 05:34:22;;;;;;;;;;;;;;;;;;4151990;28;20355;-57
2024/02/04 05:36:23;;;;;;;;;;;;;;;;;;4164297;28;19927;-57
2024/02/04 05:38:25;;;;;;;;;;;;;;;;;;4165660;28;20361;-58
2024/02/04 05:40:26;;;;;;;;;;;;;;;;;;4165582;28;19925;-58
2024/02/04 05:42:28;;;;;;;;;;;;;;;;;;4165509;28;20038;-57
2024/02/04 05:44:29;;;;;;;;;;;;;;;;;;4165413;28;19925;-57
2024/02/04 05:46:31;;;;;;;;;;;;;;;;;;4165486;28;19925;-58
2024/02/04 05:48:33;;;;;;;;;;;;;;;;;;4165724;28;19928;-57
2024/02/04 05:50:34;;;;;;;;;;;;;;;;;;4165467;28;19921;-57
2024/02/04 05:52:36;;;;;;;;;;;;;;;;;;4157869;28;20296;-58
2024/02/04 05:54:38;;;;;;;;;;;;;;;;;;4148918;28;19925;-58
2024/02/04 05:56:39;;;;;;;;;;;;;;;;;;4149262;28;20460;-58
2024/02/04 05:58:40;;;;;;;;;;;;;;;;;;4148601;28;19943;-58
2024/02/04 06:00:42;;;;;;;;;;;;;;;;;;4148964;28;19968;-57
2024/02/04 06:02:44;;;;;;;;;;;;;;;;;;4148765;28;19921;-57
2024/02/04 06:04:46;;;;;;;;;;;;;;;;;;4148759;28;20332;-58
2024/02/04 06:06:48;;;;;;;;;;;;;;;;;;4149036;28;20320;-58
2024/02/04 06:08:49;;;;;;;;;;;;;;;;;;4142474;28;19977;-58
2024/02/04 06:10:51;;;;;;;;;;;;;;;;;;4132614;28;19968;-57
2024/02/04 06:12:52;;;;;;;;;;;;;;;;;;4132656;28;19929;-58
2024/02/04 06:14:54;;;;;;;;;;;;;;;;;;4137257;28;20021;-57
2024/02/04 06:16:55;;;;;;;;;;;;;;;;;;4148853;28;19921;-58
2024/02/04 06:18:58;;;;;;;;;;;;;;;;;;4148624;28;19921;-57
2024/02/04 06:20:59;;;;;;;;;;;;;;;;;;4147520;28;19925;-57
2024/02/04 06:23:01;;;;;;;;;;;;;;;;;;4148522;28;19929;-58
2024/02/04 06:25:03;;;;;;;;;;;;;;;;;;4148469;28;20411;-58
2024/02/04 06:27:05;;;;;;;;;;;;;;;;;;4148297;28;19980;-58
2024/02/04 06:29:06;;;;;;;;;;;;;;;;;;4147246;28;19971;-57
2024/02/04 06:31:08;;;;;;;;;;;;;;;;;;4148093;28;19932;-58
2024/02/04 06:33:09;;;;;;;;;;;;;;;;;;4148325;28;20213;-58
2024/02/04 06:35:11;;;;;;;;;;;;;;;;;;4148626;28;19931;-59
2024/02/04 06:37:12;;;;;;;;;;;;;;;;;;4148357;28;19922;-58
2024/02/04 06:39:14;;;;;;;;;;;;;;;;;;4148395;28;19929;-58
2024/02/04 06:41:15;;;;;;;;;;;;;;;;;;4148341;28;20338;-58
2024/02/04 06:43:17;;;;;;;;;;;;;;;;;;4148437;28;20020;-61
2024/02/04 06:45:19;;;;;;;;;;;;;;;;;;4148322;28;19975;-62
2024/02/04 06:47:20;;;;;;;;;;;;;;;;;;4147977;28;19932;-61
2024/02/04 06:49:21;;;;;;;;;;;;;;;;;;4148053;28;19921;-61
2024/02/04 06:51:23;;;;;;;;;;;;;;;;;;4148398;28;19976;-60
2024/02/04 06:53:25;;;;;;;;;;;;;;;;;;4148019;28;20000;-61
2024/02/04 06:55:26;;;;;;;;;;;;;;;;;;4148079;28;19927;-61
2024/02/04 06:57:27;;;;;;;;;;;;;;;;;;4146470;28;19921;-61
2024/02/04 06:59:29;;;;;;;;;;;;;;;;;;4148164;28;19986;-61
2024/02/04 07:01:31;;;;;;;;;;;;;;;;;;4148163;28;19928;-61
2024/02/04 07:03:32;;;;;;;;;;;;;;;;;;4147869;28;20389;-61
2024/02/04 07:05:34;;;;;;;;;;;;;;;;;;4148084;28;19922;-61
2024/02/04 07:07:35;;;;;;;;;;;;;;;;;;4148134;28;20035;-62
2024/02/04 07:09:37;;;;;;;;;;;;;;;;;;4148053;28;20443;-62
2024/02/04 07:11:38;;;;;;;;;;;;;;;;;;4148102;28;19921;-62
2024/02/04 07:13:40;;;;;;;;;;;;;;;;;;4147874;28;19976;-61
2024/02/04 07:15:41;;;;;;;;;;;;;;;;;;4147983;28;20328;-62
2024/02/04 07:17:43;;;;;;;;;;;;;;;;;;4147894;28;19975;-61
2024/02/04 07:19:44;;;;;;;;;;;;;;;;;;4148000;28;19968;-62
2024/02/04 07:21:46;;;;;;;;;;;;;;;;;;4148021;28;19922;-62
2024/02/04 07:23:47;;;;;;;;;;;;;;;;;;4147696;28;19921;-62
2024/02/04 07:25:49;;;;;;;;;;;;;;;;;;4147924;28;19925;-62
2024/02/04 07:27:50;;;;;;;;;;;;;;;;;;4147747;28;20413;-62
2024/02/04 07:29:54;;;;;;;;;;;;;;;;;;4147755;28;19921;-62
2024/02/04 07:31:56;;;;;;;;;;;;;;;;;;4141648;28;19971;-62
2024/02/04 07:33:58;;;;;;;;;;;;;;;;;;4131688;28;19921;-62
2024/02/04 07:35:59;;;;;;;;;;;;;;;;;;4131600;28;19953;-61
2024/02/04 07:38:01;;;;;;;;;;;;;;;;;;4133596;28;20376;-61
2024/02/04 07:40:05;;;;;;;;;;;;;;;;;;4142998;28;19921;-61
2024/02/04 07:42:06;;;;;;;;;;;;;;;;;;4144302;28;20288;-62
2024/02/04 07:44:08;;;;;;;;;;;;;;;;;;4149727;28;19967;-62
2024/02/04 07:46:09;;;;;;;;;;;;;;;;;;4150944;28;20288;-62
2024/02/04 07:48:11;;;;;;;;;;;;;;;;;;4150489;28;20320;-62
2024/02/04 07:50:13;;;;;;;;;;;;;;;;;;4150478;28;19977;-62
2024/02/04 07:52:14;;;;;;;;;;;;;;;;;;4150837;28;20419;-59
2024/02/04 07:54:16;;;;;;;;;;;;;;;;;;4150949;28;20393;-61
2024/02/04 07:56:17;;;;;;;;;;;;;;;;;;4150850;28;19929;-62
2024/02/04 07:58:19;;;;;;;;;;;;;;;;;;4149057;28;19928;-62
2024/02/04 08:00:20;;;;;;;;;;;;;;;;;;4150719;28;20008;-61
2024/02/04 08:02:22;;;;;;;;;;;;;;;;;;4149330;28;19921;-62
2024/02/04 08:04:23;;;;;;;;;;;;;;;;;;4150477;28;19921;-61
2024/02/04 08:06:25;;;;;;;;;;;;;;;;;;4150456;28;19925;-61
2024/02/04 08:08:26;;;;;;;;;;;;;;;;;;4150629;28;19930;-62
2024/02/04 08:10:28;;;;;;;;;;;;;;;;;;4148548;28;19925;-61
2024/02/04 08:12:29;;;;;;;;;;;;;;;;;;4140603;28;20435;-62
2024/02/04 08:14:31;;;;;;;;;;;;;;;;;;4142922;28;19988;-62
2024/02/04 08:16:32;;;;;;;;;;;;;;;;;;4134797;28;19921;-62
2024/02/04 08:18:33;;;;;;;;;;;;;;;;;;4145704;28;20320;-62
2024/02/04 08:20:35;;;;;;;;;;;;;;;;;;4150614;28;20016;-62
2024/02/04 08:22:36;;;;;;;;;;;;;;;;;;4148921;28;20012;-62
2024/02/04 08:24:38;;;;;;;;;;;;;;;;;;4144495;28;19925;-62
2024/02/04 08:26:39;;;;;;;;;;;;;;;;;;4145156;28;20068;-62
2024/02/04 08:28:41;;;;;;;;;;;;;;;;;;4152451;28;19932;-62
2024/02/04 08:30:42;;;;;;;;;;;;;;;;;;4155204;28;19921;-62
2024/02/04 08:32:44;;;;;;;;;;;;;;;;;;4148916;28;19922;-62
2024/02/04 08:34:46;;;;;;;;;;;;;;;;;;4146990;28;19957;-62
2024/02/04 08:36:47;;;;;;;;;;;;;;;;;;4149442;28;19921;-62
2024/02/04 08:38:49;;;;;;;;;;;;;;;;;;4146067;28;20151;-62
2024/02/04 08:40:50;;;;;;;;;;;;;;;;;;4152792;28;19936;-62
2024/02/04 08:42:52;;;;;;;;;;;;;;;;;;4147149;28;20312;-61
2024/02/04 08:44:53;;;;;;;;;;;;;;;;;;4145994;28;19921;-61
2024/02/04 08:46:55;;;;;;;;;;;;;;;;;;4149189;28;19928;-62
2024/02/04 08:48:57;;;;;;;;;;;;;;;;;;4144603;28;19921;-62
2024/02/04 08:50:59;;;;;;;;;;;;;;;;;;4150127;28;19925;-62
2024/02/04 08:53:00;;;;;;;;;;;;;;;;;;4149677;28;19921;-62
2024/02/04 08:55:03;;;;;;;;;;;;;;;;;;4148363;28;19929;-62
2024/02/04 08:57:05;;;;;;;;;;;;;;;;;;4149085;28;19921;-62
2024/02/04 08:59:07;;;;;;;;;;;;;;;;;;4146024;28;19940;-62
2024/02/04 09:01:09;;;;;;;;;;;;;;;;;;4144823;28;19926;-62
2024/02/04 09:03:10;;;;;;;;;;;;;;;;;;4149764;28;19925;-57
2024/02/04 09:05:12;;;;;;;;;;;;;;;;;;4148097;28;19991;-60
2024/02/04 09:07:13;;;;;;;;;;;;;;;;;;4146279;28;20274;-58
2024/02/04 09:09:15;;;;;;;;;;;;;;;;;;4146336;28;19925;-57
2024/02/04 09:11:18;;;;;;;;;;;;;;;;;;4143247;28;19936;-59
2024/02/04 09:13:20;;;;;;;;;;;;;;;;;;4144577;28;20416;-58
2024/02/04 09:15:21;;;;;;;;;;;;;;;;;;4145017;28;20399;-58
2024/02/04 09:17:23;;;;;;;;;;;;;;;;;;4145860;28;19975;-59
2024/02/04 09:19:25;;;;;;;;;;;;;;;;;;4146899;28;19933;-59
2024/02/04 09:21:26;;;;;;;;;;;;;;;;;;4145022;28;19921;-58
2024/02/04 09:23:28;;;;;;;;;;;;;;;;;;4146753;28;19929;-61
2024/02/04 09:25:30;;;;;;;;;;;;;;;;;;4148453;28;19922;-61
2024/02/04 09:27:31;;;;;;;;;;;;;;;;;;4146278;28;19930;-62
2024/02/04 09:29:33;;;;;;;;;;;;;;;;;;4149266;28;19921;-62
2024/02/04 09:31:34;;;;;;;;;;;;;;;;;;4148580;28;19996;-61
2024/02/04 09:33:37;;;;;;;;;;;;;;;;;;4143787;28;19926;-62
2024/02/04 09:35:39;;;;;;;;;;;;;;;;;;4146677;28;20389;-62
2024/02/04 09:37:40;;;;;;;;;;;;;;;;;;4148067;28;19921;-62
2024/02/04 09:39:42;;;;;;;;;;;;;;;;;;4147952;28;19925;-62
2024/02/04 09:41:43;;;;;;;;;;;;;;;;;;4148701;28;20381;-62
2024/02/04 09:43:45;;;;;;;;;;;;;;;;;;4151539;28;19929;-62
2024/02/04 09:45:46;;;;;;;;;;;;;;;;;;4148059;28;19932;-61
2024/02/04 09:47:48;;;;;;;;;;;;;;;;;;4144469;28;19948;-62
2024/02/04 09:49:52;;;;;;;;;;;;;;;;;;4147259;28;20030;-62
2024/02/04 09:51:53;;;;;;;;;;;;;;;;;;4150404;28;19964;-62
2024/02/04 09:53:55;;;;;;;;;;;;;;;;;;4148917;28;20411;-62
2024/02/04 09:55:56;;;;;;;;;;;;;;;;;;4148903;28;19925;-62
2024/02/04 09:57:58;;;;;;;;;;;;;;;;;;4146002;28;19925;-62
2024/02/04 10:00:00;;;;;;;;;;;;;;;;;;4146218;28;20056;-62
2024/02/04 10:02:01;;;;;;;;;;;;;;;;;;4147015;28;20288;-61
2024/02/04 10:04:03;;;;;;;;;;;;;;;;;;4137445;28;20021;-62
2024/02/04 10:06:04;;;;;;;;;;;;;;;;;;4140759;28;19964;-61
2024/02/04 10:08:06;;;;;;;;;;;;;;;;;;4148624;28;19968;-61
2024/02/04 10:10:08;;;;;;;;;;;;;;;;;;4148654;28;19921;-61
2024/02/04 10:12:09;;;;;;;;;;;;;;;;;;4150392;28;19991;-62
2024/02/04 10:14:11;;;;;;;;;;;;;;;;;;4147679;28;19950;-61
2024/02/04 10:16:12;;;;;;;;;;;;;;;;;;4146514;28;19929;-61
2024/02/04 10:18:14;;;;;;;;;;;;;;;;;;4148277;28;19952;-62
2024/02/04 10:20:15;;;;;;;;;;;;;;;;;;4145218;28;20396;-62
2024/02/04 10:22:20;;;;;;;;;;;;;;;;;;4144328;28;20341;-61
2024/02/04 10:24:22;;;;;;;;;;;;;;;;;;4142242;28;19976;-62
2024/02/04 10:26:23;;;;;;;;;;;;;;;;;;4142171;28;19957;-62
2024/02/04 10:28:25;;;;;;;;;;;;;;;;;;4143221;28;20359;-62
2024/02/04 10:30:26;;;;;;;;;;;;;;;;;;4148336;28;19933;-61
2024/02/04 10:32:28;;;;;;;;;;;;;;;;;;4148660;28;20373;-62
2024/02/04 10:34:29;;;;;;;;;;;;;;;;;;4141565;28;20365;-62
2024/02/04 10:36:32;;;;;;;;;;;;;;;;;;4145741;28;19921;-62
2024/02/04 10:38:33;;;;;;;;;;;;;;;;;;4140733;28;19929;-62
2024/02/04 10:40:35;;;;;;;;;;;;;;;;;;4149411;28;19976;-62
2024/02/04 10:42:36;;;;;;;;;;;;;;;;;;4143320;28;19931;-62
2024/02/04 10:44:38;;;;;;;;;;;;;;;;;;4141648;28;19925;-62
2024/02/04 10:46:40;;;;;;;;;;;;;;;;;;4137860;28;19967;-62
2024/02/04 10:48:42;;;;;;;;;;;;;;;;;;4145682;28;19921;-62
2024/02/04 10:50:45;;;;;;;;;;;;;;;;;;4144920;28;19944;-62
2024/02/04 10:52:47;;;;;;;;;;;;;;;;;;4142537;28;19921;-62
2024/02/04 10:54:48;;;;;;;;;;;;;;;;;;4147344;28;19926;-62
2024/02/04 10:56:50;;;;;;;;;;;;;;;;;;4149170;28;19925;-62
2024/02/04 10:58:51;;;;;;;;;;;;;;;;;;4148259;28;19936;-61
2024/02/04 11:00:53;;;;;;;;;;;;;;;;;;4150632;28;19979;-61
2024/02/04 11:02:54;;;;;;;;;;;;;;;;;;4143932;28;20012;-61
2024/02/04 11:04:56;;;;;;;;;;;;;;;;;;4150466;28;20027;-61
2024/02/04 11:06:57;;;;;;;;;;;;;;;;;;4147139;28;19921;-61
2024/02/04 11:09:00;;;;;;;;;;;;;;;;;;4148707;28;19922;-61
2024/02/04 11:11:01;;;;;;;;;;;;;;;;;;4154415;28;19979;-61
2024/02/04 11:13:03;;;;;;;;;;;;;;;;;;4152648;28;20035;-61
2024/02/04 11:15:04;;;;;;;;;;;;;;;;;;4157765;28;19933;-61
2024/02/04 11:17:06;;;;;;;;;;;;;;;;;;4156958;28;20407;-61
2024/02/04 11:19:07;;;;;;;;;;;;;;;;;;4148095;28;19933;-61
2024/02/04 11:21:09;;;;;;;;;;;;;;;;;;4152167;28;19926;-63
2024/02/04 11:23:10;;;;;;;;;;;;;;;;;;4152367;28;19925;-61
2024/02/04 11:25:12;;;;;;;;;;;;;;;;;;4154226;28;19976;-61
2024/02/04 11:27:14;;;;;;;;;;;;;;;;;;4155951;28;19922;-61
2024/02/04 11:29:15;;;;;;;;;;;;;;;;;;4156809;28;20008;-61
2024/02/04 11:31:17;;;;;;;;;;;;;;;;;;4145486;28;19921;-61
2024/02/04 11:33:19;;;;;;;;;;;;;;;;;;4150150;28;20393;-61
2024/02/04 11:35:21;;;;;;;;;;;;;;;;;;4149436;28;19929;-61
2024/02/04 11:37:23;;;;;;;;;;;;;;;;;;4149876;28;19925;-60
2024/02/04 11:39:25;;;;;;;;;;;;;;;;;;4146022;28;19975;-60
2024/02/04 11:41:27;;;;;;;;;;;;;;;;;;4148874;28;19921;-62
2024/02/04 11:43:29;;;;;;;;;;;;;;;;;;4155648;28;19968;-60
2024/02/04 11:45:30;;;;;;;;;;;;;;;;;;4147452;28;20386;-59
2024/02/04 11:47:32;;;;;;;;;;;;;;;;;;4144283;28;19925;-60
2024/02/04 11:49:33;;;;;;;;;;;;;;;;;;4145667;28;19929;-60
2024/02/04 11:51:35;;;;;;;;;;;;;;;;;;4142824;28;19925;-60
2024/02/04 11:53:37;;;;;;;;;;;;;;;;;;4138320;28;19926;-60
2024/02/04 11:55:38;;;;;;;;;;;;;;;;;;4143465;28;19921;-60
2024/02/04 11:57:45;;;;;;;;;;;;;;;;;;4144899;28;19984;-60
2024/02/04 11:59:46;;;;;;;;;;;;;;;;;;4148319;28;19929;-60
2024/02/04 12:01:48;;;;;;;;;;;;;;;;;;4158016;28;19921;-60
2024/02/04 12:03:49;;;;;;;;;;;;;;;;;;4139630;28;19925;-60
2024/02/04 12:05:51;;;;;;;;;;;;;;;;;;4146926;28;20452;-60
2024/02/04 12:07:52;;;;;;;;;;;;;;;;;;4141258;28;19925;-60
2024/02/04 12:09:54;;;;;;;;;;;;;;;;;;4143680;28;19936;-60
2024/02/04 12:11:58;;;;;;;;;;;;;;;;;;4139649;28;19960;-60
2024/02/04 12:14:01;;;;;;;;;;;;;;;;;;4155453;28;19929;-60
2024/02/04 12:16:02;;;;;;;;;;;;;;;;;;4156305;28;19972;-60
2024/02/04 12:18:04;;;;;;;;;;;;;;;;;;4154259;28;19960;-60
2024/02/04 12:20:06;;;;;;;;;;;;;;;;;;4154291;28;20012;-60
2024/02/04 12:22:10;;;;;;;;;;;;;;;;;;4154595;28;19921;-60
2024/02/04 12:24:11;;;;;;;;;;;;;;;;;;4156592;28;20364;-60
2024/02/04 12:26:14;;;;;;;;;;;;;;;;;;4143232;28;19922;-60
2024/02/04 12:28:15;;;;;;;;;;;;;;;;;;4157813;28;20423;-60
2024/02/04 12:30:17;;;;;;;;;;;;;;;;;;4158004;28;19967;-60
2024/02/04 12:32:19;;;;;;;;;;;;;;;;;;4158008;28;19964;-61
2024/02/04 12:34:20;;;;;;;;;;;;;;;;;;4156498;28;19928;-60
2024/02/04 12:36:22;;;;;;;;;;;;;;;;;;4157225;28;19921;-60
2024/02/04 12:38:23;;;;;;;;;;;;;;;;;;4157901;28;19951;-60
2024/02/04 12:40:25;;;;;;;;;;;;;;;;;;4158202;28;20369;-61
2024/02/04 12:42:26;;;;;;;;;;;;;;;;;;4156404;28;19928;-60
2024/02/04 12:44:28;;;;;;;;;;;;;;;;;;4157448;28;19921;-61
2024/02/04 12:46:29;;;;;;;;;;;;;;;;;;4149277;28;20020;-60
2024/02/04 12:48:31;;;;;;;;;;;;;;;;;;4153028;28;19921;-60
2024/02/04 12:50:35;;;;;;;;;;;;;;;;;;4154181;28;19929;-60
2024/02/04 12:52:39;;;;;;;;;;;;;;;;;;4153137;28;20369;-60
2024/02/04 12:54:41;;;;;;;;;;;;;;;;;;4158043;28;20165;-61
2024/02/04 12:56:43;;;;;;;;;;;;;;;;;;4149655;28;19976;-61
2024/02/04 12:58:44;;;;;;;;;;;;;;;;;;4152329;28;19929;-60
2024/02/04 13:00:45;;;;;;;;;;;;;;;;;;4159497;28;19971;-61
2024/02/04 13:02:47;;;;;;;;;;;;;;;;;;4147571;28;19926;-61
2024/02/04 13:04:48;;;;;;;;;;;;;;;;;;4138846;28;19968;-61
2024/02/04 13:06:50;;;;;;;;;;;;;;;;;;4159496;28;19928;-60
2024/02/04 13:08:52;;;;;;;;;;;;;;;;;;4160317;28;20397;-61
2024/02/04 13:10:53;;;;;;;;;;;;;;;;;;4147921;28;20382;-61
2024/02/04 13:12:54;;;;;;;;;;;;;;;;;;4156668;28;19952;-61
2024/02/04 13:14:57;;;;;;;;;;;;;;;;;;4157456;28;19927;-60
2024/02/04 13:16:58;;;;;;;;;;;;;;;;;;4156132;28;19928;-61
2024/02/04 13:19:00;;;;;;;;;;;;;;;;;;4162614;28;19975;-61
2024/02/04 13:21:01;;;;;;;;;;;;;;;;;;4154550;28;20301;-61
2024/02/04 13:23:05;;;;;;;;;;;;;;;;;;4155457;28;19925;-61
2024/02/04 13:25:06;;;;;;;;;;;;;;;;;;4150245;28;19979;-61
2024/02/04 13:27:08;;;;;;;;;;;;;;;;;;4147435;28;19932;-61
2024/02/04 13:29:10;;;;;;;;;;;;;;;;;;4145703;28;19926;-61
2024/02/04 13:31:11;;;;;;;;;;;;;;;;;;4145678;28;19987;-61
2024/02/04 13:33:13;;;;;;;;;;;;;;;;;;4156904;28;19956;-60
2024/02/04 13:35:16;;;;;;;;;;;;;;;;;;4140795;28;19925;-61
2024/02/04 13:37:21;;;;;;;;;;;;;;;;;;4153835;28;20377;-61
2024/02/04 13:39:24;;;;;;;;;;;;;;;;;;4149953;28;19921;-61
2024/02/04 13:41:26;;;;;;;;;;;;;;;;;;4150961;28;19925;-61
2024/02/04 13:43:27;;;;;;;;;;;;;;;;;;4147992;28;20393;-61
2024/02/04 13:45:29;;;;;;;;;;;;;;;;;;4136545;28;21174;-61
2024/02/04 13:47:32;;;;;;;;;;;;;;;;;;4153436;28;20277;-60
2024/02/04 13:49:33;;;;;;;;;;;;;;;;;;4154223;28;19922;-61
2024/02/04 13:51:36;;;;;;;;;;;;;;;;;;4154281;28;20754;-60